Time;durP1;ratioP1;P1;durP2;ratioP2;P2;SDS_P1;SDS_P2;PMS_P1;PMS_P2;Temp;Humidity;BMP_temperature;BMP_pressure;BME280_temperature;BME280_humidity;BME280_pressure;Samples;Min_cycle;Max_cycle;Signal;HPM_P1;HPM_P2
2022/01/22 00:00:29;;;;;;;;;14.50;13.00;;;;;20.08;39.64;102831.41;5058697;28;45442;-72
2022/01/22 00:02:55;;;;;;;;;11.75;11.25;;;;;20.08;39.73;102831.41;5044523;28;47072;-72
2022/01/22 00:05:20;;;;;;;;;17.00;13.50;;;;;20.11;39.57;102833.19;5078568;28;45366;-72
2022/01/22 00:07:46;;;;;;;;;13.25;13.25;;;;;20.10;39.42;102832.31;5054879;28;45370;-72
2022/01/22 00:10:17;;;;;;;;;13.75;13.75;;;;;20.08;39.68;102825.22;5054388;28;45419;-71
2022/01/22 00:13:06;;;;;;;;;14.75;13.50;;;;;20.08;39.56;102828.75;5049674;28;45449;-72
2022/01/22 00:15:29;;;;;;;;;11.25;10.75;;;;;20.08;38.93;102825.22;5078239;28;45411;-72
2022/01/22 00:17:55;;;;;;;;;12.00;10.25;;;;;20.07;39.76;102818.13;5078340;28;45507;-72
2022/01/22 00:20:22;;;;;;;;;13.25;12.50;;;;;20.05;39.29;102820.78;5044518;28;45462;-72
2022/01/22 00:22:47;;;;;;;;;12.75;11.50;;;;;20.06;39.33;102825.19;5044471;28;46283;-72
2022/01/22 00:25:14;;;;;;;;;11.00;10.50;;;;;20.07;39.65;102810.19;5061181;28;45246;-72
2022/01/22 00:27:42;;;;;;;;;12.00;10.75;;;;;20.07;39.49;102819.03;5061562;28;45472;-72
2022/01/22 00:30:09;;;;;;;;;12.25;12.25;;;;;20.05;39.61;102811.06;5079042;28;45461;-72
2022/01/22 00:32:35;;;;;;;;;12.00;10.00;;;;;20.04;39.32;102819.91;5081476;28;45653;-72
2022/01/22 00:35:00;;;;;;;;;14.75;12.50;;;;;20.05;39.19;102810.19;5064549;28;45442;-72
2022/01/22 00:37:26;;;;;;;;;15.75;14.00;;;;;20.05;39.25;102810.19;5081808;28;45344;-72
2022/01/22 00:39:51;;;;;;;;;11.50;11.00;;;;;20.04;39.44;102806.66;5045651;28;61839;-72
2022/01/22 00:42:17;;;;;;;;;14.25;13.25;;;;;20.03;39.08;102804.88;5027689;28;46914;-72
2022/01/22 00:44:43;;;;;;;;;14.25;12.50;;;;;20.03;39.79;102806.66;5060886;28;45452;-72
2022/01/22 00:47:08;;;;;;;;;12.25;11.50;;;;;20.03;39.74;102804.88;5061340;28;45276;-72
2022/01/22 00:49:34;;;;;;;;;13.50;13.25;;;;;20.03;39.72;102806.66;5043804;28;58952;-72
2022/01/22 00:51:59;;;;;;;;;13.50;12.50;;;;;20.03;39.55;102806.66;5061169;28;45586;-72
2022/01/22 00:54:25;;;;;;;;;11.25;10.00;;;;;20.03;39.98;102815.47;5044178;28;45320;-71
2022/01/22 00:56:50;;;;;;;;;13.50;11.75;;;;;20.03;39.57;102807.53;5044342;28;45900;-72
2022/01/22 00:59:15;;;;;;;;;11.00;9.00;;;;;20.02;40.17;102805.75;5043624;28;54514;-72
2022/01/22 01:01:41;;;;;;;;;14.75;12.75;;;;;20.02;39.68;102813.72;5043806;28;47379;-72
2022/01/22 01:04:09;;;;;;;;;12.25;10.50;;;;;20.02;39.98;102813.72;5060219;28;59115;-72
2022/01/22 01:06:34;;;;;;;;;13.00;12.00;;;;;20.04;39.92;102805.75;5071242;28;45479;-72
2022/01/22 01:09:01;;;;;;;;;10.25;9.75;;;;;20.05;39.79;102810.19;5063859;28;45343;-72
2022/01/22 01:11:28;;;;;;;;;13.50;12.00;;;;;20.05;39.95;102807.53;5080969;28;46361;-72
2022/01/22 01:13:58;;;;;;;;;15.75;14.00;;;;;20.03;39.80;102798.69;5064108;28;45237;-71
2022/01/22 01:33:01;;;;;;;;;17.00;14.00;;;;;19.99;39.88;102788.97;5066571;28;45457;-71
2022/01/22 01:35:27;;;;;;;;;15.25;13.50;;;;;19.99;39.62;102789.84;5052518;28;45464;-71
2022/01/22 01:37:55;;;;;;;;;14.00;12.00;;;;;20.01;39.99;102789.84;5063961;28;45409;-71
2022/01/22 01:40:23;;;;;;;;;14.50;9.50;;;;;20.00;39.68;102788.97;5060194;28;45413;-71
2022/01/22 01:42:57;;;;;;;;;9.75;9.75;;;;;20.00;39.65;102785.44;5060619;28;48145;-71
2022/01/22 01:45:23;;;;;;;;;10.75;10.25;;;;;19.99;39.94;102787.22;5064945;28;45306;-70
2022/01/22 01:48:00;;;;;;;;;13.25;13.00;;;;;20.03;39.99;102796.03;5081480;27;45323;-70
2022/01/22 01:50:26;;;;;;;;;12.50;10.75;;;;;20.03;39.42;102788.97;5081707;27;45444;-70
2022/01/22 01:53:13;;;;;;;;;16.25;13.25;;;;;20.00;39.41;102796.03;5081425;27;45420;-70
2022/01/22 01:58:15;;;;;;;;;15.00;12.00;;;;;19.98;39.51;102789.81;5081423;27;45424;-70
2022/01/22 02:00:40;;;;;;;;;12.25;10.50;;;;;19.96;39.43;102797.78;5080305;28;45402;-70
2022/01/22 02:03:08;;;;;;;;;15.25;12.75;;;;;19.95;39.49;102789.84;5079343;28;63851;-70
2022/01/22 02:05:35;;;;;;;;;15.00;12.25;;;;;19.93;39.56;102795.13;5081372;28;45486;-70
2022/01/22 02:08:00;;;;;;;;;13.00;12.75;;;;;19.92;39.75;102803.97;5080471;28;45278;-71
2022/01/22 02:10:29;;;;;;;;;12.25;9.75;;;;;19.91;39.47;102796.03;5079930;28;45268;-70
2022/01/22 02:23:44;;;;;;;;;12.00;12.00;;;;;19.84;40.04;102783.63;5065649;28;45540;-71
2022/01/22 02:26:10;;;;;;;;;17.00;16.25;;;;;19.83;40.24;102795.09;5064249;28;45351;-71
2022/01/22 02:28:36;;;;;;;;;17.25;14.25;;;;;19.83;39.68;102781.84;5059390;28;45533;-71
2022/01/22 02:31:15;;;;;;;;;17.50;15.00;;;;;19.81;39.97;102778.28;5059375;28;45588;-71
2022/01/22 02:39:37;;;;;;;;;16.00;12.25;;;;;19.82;39.79;102785.38;5064365;28;45455;-71
2022/01/22 02:41:33;;;;;;;;;15.00;13.00;;;;;19.83;40.09;102784.50;5079371;27;45503;-71
2022/01/22 02:44:00;;;;;;;;;12.25;12.25;;;;;19.81;39.80;102781.84;5062665;27;47730;-71
2022/01/22 02:46:27;;;;;;;;;11.25;11.25;;;;;19.84;39.97;102780.97;5062503;27;45776;-72
2022/01/22 02:48:54;;;;;;;;;12.50;12.00;;;;;19.84;39.95;102771.25;5045903;28;45324;-71
2022/01/22 02:51:20;;;;;;;;;14.75;10.75;;;;;19.87;39.76;102773.03;5080744;27;45798;-72
2022/01/22 02:53:48;;;;;;;;;13.25;11.00;;;;;19.88;39.85;102770.38;5079610;27;45296;-72
2022/01/22 02:56:14;;;;;;;;;12.50;12.50;;;;;19.87;39.58;102771.25;5080502;27;45320;-72
2022/01/22 02:58:39;;;;;;;;;16.75;12.25;;;;;19.86;39.96;102764.19;5079426;28;45264;-71
2022/01/22 03:01:05;;;;;;;;;15.75;11.25;;;;;19.87;39.41;102776.56;5062373;28;45247;-72
2022/01/22 03:03:30;;;;;;;;;13.75;12.50;;;;;19.86;39.99;102768.59;5078905;28;54471;-72
2022/01/22 03:05:55;;;;;;;;;15.75;11.75;;;;;19.86;40.09;102777.44;5079175;28;45338;-72
2022/01/22 03:08:27;;;;;;;;;13.00;12.00;;;;;19.86;39.91;102766.84;5041835;28;51376;-72
2022/01/22 03:10:53;;;;;;;;;12.25;9.75;;;;;19.85;39.43;102759.78;5077931;28;45327;-72
2022/01/22 03:14:14;;;;;;;;;10.00;9.00;;;;;19.87;39.93;102762.41;5045667;28;48459;-72
2022/01/22 03:16:33;;;;;;;;;13.00;12.50;;;;;19.87;39.98;102762.41;5080135;27;45297;-72
2022/01/22 03:19:06;;;;;;;;;13.00;12.00;;;;;19.88;40.67;102759.78;5072074;28;45248;-72
2022/01/22 03:21:40;;;;;;;;;10.25;10.25;;;;;19.89;40.37;102758.88;5076638;27;45456;-72
2022/01/22 03:29:37;;;;;;;;;18.00;14.25;;;;;19.90;39.94;102773.06;5080299;28;45269;-72
2022/01/22 03:32:04;;;;;;;;;14.25;12.00;;;;;19.88;40.23;102764.19;5058501;28;45403;-72
2022/01/22 03:34:36;;;;;;;;;13.50;12.00;;;;;19.88;40.06;102766.84;5071961;28;45396;-72
2022/01/22 03:37:01;;;;;;;;;18.25;13.25;;;;;19.88;40.23;102772.13;5062932;28;45408;-72
2022/01/22 03:39:27;;;;;;;;;13.75;12.50;;;;;19.87;39.59;102767.72;5061848;28;45326;-72
2022/01/22 03:41:52;;;;;;;;;12.75;11.75;;;;;19.87;39.59;102759.78;5058535;28;52454;-72
2022/01/22 03:44:18;;;;;;;;;14.00;13.00;;;;;19.88;39.68;102766.84;5051954;28;59027;-72
2022/01/22 03:46:43;;;;;;;;;13.50;11.00;;;;;19.87;39.62;102775.66;5078669;28;45455;-72
2022/01/22 03:49:10;;;;;;;;;12.50;10.25;;;;;19.87;40.00;102780.97;5045293;28;45539;-72
2022/01/22 03:51:36;;;;;;;;;12.75;11.00;;;;;19.87;40.24;102775.66;5045532;28;45654;-72
2022/01/22 03:54:02;;;;;;;;;15.75;12.50;;;;;19.88;39.40;102780.09;5078473;28;46394;-72
2022/01/22 03:56:27;;;;;;;;;15.00;13.00;;;;;19.88;39.75;102775.66;5041595;28;45433;-72
2022/01/22 03:58:53;;;;;;;;;13.50;13.00;;;;;19.87;39.26;102773.03;5038677;28;45493;-72
2022/01/22 04:04:01;;;;;;;;;12.00;10.00;;;;;19.88;39.53;102780.09;5077742;27;46011;-72
2022/01/22 04:06:57;;;;;;;;;10.00;10.00;;;;;19.87;39.06;102776.56;5070985;28;45268;-72
2022/01/22 04:09:15;;;;;;;;;11.25;10.50;;;;;19.85;40.03;102769.50;5081956;28;45286;-72
2022/01/22 04:11:43;;;;;;;;;15.25;12.50;;;;;19.85;39.43;102774.78;5061770;28;45322;-72
2022/01/22 04:14:23;;;;;;;;;16.25;12.75;;;;;19.85;39.97;102774.78;5044986;28;47343;-72
2022/01/22 04:25:00;;;;;;;;;13.50;11.25;;;;;19.92;39.61;102761.56;5081815;28;45813;-72
2022/01/22 04:27:27;;;;;;;;;14.00;14.00;;;;;19.92;39.76;102764.22;5064716;27;45200;-72
2022/01/22 04:29:57;;;;;;;;;11.50;10.25;;;;;19.92;40.18;102760.69;5046417;28;45249;-72
2022/01/22 04:32:24;;;;;;;;;14.00;12.50;;;;;19.92;39.89;102760.69;5048966;28;45283;-71
2022/01/22 04:34:50;;;;;;;;;12.75;12.50;;;;;19.94;39.67;102766.88;5081557;28;45418;-72
2022/01/22 04:37:18;;;;;;;;;13.00;10.50;;;;;19.93;40.51;102760.69;5082840;27;45230;-72
2022/01/22 04:39:44;;;;;;;;;13.00;12.75;;;;;19.94;39.80;102757.16;5064166;28;45278;-72
2022/01/22 04:42:10;;;;;;;;;15.75;12.75;;;;;19.95;39.86;102755.38;5081560;28;45555;-71
2022/01/22 04:44:42;;;;;;;;;14.00;11.25;;;;;19.95;40.05;102761.56;5080890;28;53460;-72
2022/01/22 04:55:00;;;;;;;;;15.00;13.25;;;;;19.96;40.20;102765.97;5066067;28;45335;-72
2022/01/22 04:57:30;;;;;;;;;11.75;11.50;;;;;19.97;39.58;102766.84;5062838;28;45310;-72
2022/01/22 04:59:55;;;;;;;;;15.25;11.75;;;;;19.97;40.03;102769.50;5064846;27;45526;-72
2022/01/22 05:02:21;;;;;;;;;14.00;12.00;;;;;19.96;39.37;102768.63;5064246;28;45521;-72
2022/01/22 05:04:46;;;;;;;;;14.75;13.00;;;;;19.95;39.65;102764.22;5044082;28;47278;-72
2022/01/22 05:07:12;;;;;;;;;13.25;12.50;;;;;19.96;39.35;102765.09;5042861;28;45614;-72
2022/01/22 05:09:37;;;;;;;;;14.00;14.00;;;;;19.96;38.99;102767.75;5047404;28;45331;-72
2022/01/22 05:12:04;;;;;;;;;13.25;13.25;;;;;19.94;39.10;102775.69;5079362;28;45460;-71
2022/01/22 05:14:30;;;;;;;;;19.75;17.50;;;;;19.94;38.50;102770.41;5064169;28;45370;-72
2022/01/22 05:16:56;;;;;;;;;13.50;12.00;;;;;19.92;39.55;102765.97;5063047;28;45316;-71
2022/01/22 05:19:32;;;;;;;;;14.00;12.00;;;;;19.93;39.30;102773.03;5060664;27;45252;-72
2022/01/22 05:22:04;;;;;;;;;15.75;14.00;;;;;19.92;39.02;102760.69;5078761;28;45724;-72
2022/01/22 05:24:33;;;;;;;;;14.00;14.00;;;;;19.91;39.39;102764.22;5080807;28;46453;-72
2022/01/22 05:29:58;;;;;;;;;19.00;14.00;;;;;19.92;39.48;102771.28;5072312;28;45237;-72
2022/01/22 05:37:33;;;;;;;;;14.25;14.25;;;;;19.89;39.67;102777.44;5082047;28;45338;-72
2022/01/22 05:39:59;;;;;;;;;14.25;13.00;;;;;19.91;39.83;102788.06;5043360;28;45299;-72
2022/01/22 05:42:24;;;;;;;;;15.00;14.50;;;;;19.91;39.24;102769.50;5073140;28;45373;-72
2022/01/22 05:44:50;;;;;;;;;17.25;15.00;;;;;19.89;39.43;102771.25;5080189;28;46361;-72
2022/01/22 05:47:21;;;;;;;;;15.75;13.50;;;;;19.88;38.90;102770.38;5080413;28;45494;-72
2022/01/22 05:49:46;;;;;;;;;16.00;14.50;;;;;19.87;39.59;102776.56;5048459;28;45521;-72
2022/01/22 05:52:14;;;;;;;;;11.75;7.50;;;;;19.87;39.67;102773.03;5063406;28;45405;-72
2022/01/22 06:00:17;;;;;;;;;22.50;13.75;;;;;19.85;39.67;102786.28;5060498;28;45404;-72
2022/01/22 06:02:42;;;;;;;;;15.75;14.25;;;;;19.87;39.43;102791.56;5059407;28;56041;-72
2022/01/22 06:05:07;;;;;;;;;14.50;11.75;;;;;19.88;39.33;102796.88;5059813;28;47015;-70
2022/01/22 06:07:33;;;;;;;;;11.25;11.25;;;;;19.92;41.36;102792.47;5079005;28;46006;-71
2022/01/22 06:15:08;;;;;;;;;12.75;9.25;;;;;20.26;42.47;102794.34;5065802;28;45674;-73
2022/01/22 06:17:34;;;;;;;;;14.25;12.50;;;;;20.37;43.14;102804.06;5045105;28;45769;-75
2022/01/22 06:19:59;;;;;;;;;12.25;10.50;;;;;20.47;43.47;102788.19;5063125;28;45255;-75
2022/01/22 06:22:24;;;;;;;;;13.25;12.00;;;;;20.61;43.19;102793.53;5042899;28;45395;-73
2022/01/22 06:24:50;;;;;;;;;11.00;10.00;;;;;20.82;42.92;102793.50;5052355;28;61492;-74
2022/01/22 06:27:15;;;;;;;;;12.25;11.25;;;;;21.04;42.79;102791.72;5042708;28;45251;-73
2022/01/22 06:29:41;;;;;;;;;12.25;10.25;;;;;21.21;43.03;102788.16;5072536;28;45251;-75
2022/01/22 06:32:07;;;;;;;;;13.75;12.75;;;;;21.41;42.87;102787.25;5046053;28;45189;-73
2022/01/22 06:34:32;;;;;;;;;12.25;10.75;;;;;21.71;42.68;102793.31;5045971;28;48280;-72
2022/01/22 06:36:57;;;;;;;;;10.75;10.25;;;;;21.99;42.37;102781.69;5062139;28;60805;-72
2022/01/22 06:39:24;;;;;;;;;14.50;12.50;;;;;22.20;41.56;102785.13;5045386;28;55821;-74
2022/01/22 06:41:49;;;;;;;;;15.00;14.00;;;;;22.29;41.66;102785.94;5062710;28;45571;-73
2022/01/22 06:44:22;;;;;;;;;12.75;9.50;;;;;22.37;41.23;102779.69;5042177;28;46593;-72
2022/01/22 06:46:49;;;;;;;;;14.75;13.00;;;;;22.35;41.48;102782.38;5045625;28;45749;-72
2022/01/22 06:49:15;;;;;;;;;15.25;13.50;;;;;22.35;40.94;102792.13;5059131;28;45296;-72
2022/01/22 06:51:40;;;;;;;;;15.00;12.75;;;;;22.32;41.56;102792.13;5058940;28;45560;-71
2022/01/22 06:54:06;;;;;;;;;11.50;11.50;;;;;22.27;41.56;102792.19;5058737;28;45893;-72
2022/01/22 06:56:32;;;;;;;;;13.50;12.00;;;;;22.22;41.87;102789.53;5059085;28;45360;-73
2022/01/22 06:58:57;;;;;;;;;13.00;10.25;;;;;22.17;41.60;102809.97;5062455;28;45686;-82
2022/01/22 07:01:23;;;;;;;;;12.50;9.75;;;;;22.12;41.74;102806.44;5062281;28;45582;-76
2022/01/22 07:03:48;;;;;;;;;9.00;9.00;;;;;22.08;42.32;102796.75;5080539;27;46067;-75
2022/01/22 07:06:14;;;;;;;;;13.00;10.00;;;;;22.05;42.54;102798.47;5058771;28;46876;-73
2022/01/22 07:08:39;;;;;;;;;10.25;9.00;;;;;22.00;42.14;102802.06;5073155;28;45250;-73
2022/01/22 07:11:05;;;;;;;;;15.00;12.50;;;;;21.94;40.34;102807.41;5062175;28;45570;-72
2022/01/22 07:13:31;;;;;;;;;15.25;14.25;;;;;21.79;39.94;102799.50;5061978;27;47782;-73
2022/01/22 07:15:56;;;;;;;;;16.00;15.00;;;;;21.68;39.25;102802.19;5044945;28;59285;-73
2022/01/22 07:18:22;;;;;;;;;16.00;13.25;;;;;21.58;39.65;102807.56;5061801;28;54906;-72
2022/01/22 07:20:49;;;;;;;;;15.75;12.75;;;;;21.47;39.70;102807.59;5079037;28;50339;-72
2022/01/22 07:23:31;;;;;;;;;19.00;15.75;;;;;21.37;40.07;102806.75;5042760;28;48297;-73
2022/01/22 07:25:56;;;;;;;;;17.50;15.00;;;;;21.31;40.07;102808.53;5066517;27;46022;-72
2022/01/22 07:28:22;;;;;;;;;18.25;16.50;;;;;21.24;39.96;102801.44;5061739;28;45369;-72
2022/01/22 07:30:48;;;;;;;;;15.50;15.50;;;;;21.16;39.91;102807.63;5078921;28;45347;-72
2022/01/22 07:33:14;;;;;;;;;15.25;14.00;;;;;21.11;40.13;102811.16;5061946;28;46469;-72
2022/01/22 07:35:39;;;;;;;;;17.25;13.75;;;;;21.05;40.54;102812.09;5062156;28;45412;-72
2022/01/22 07:38:05;;;;;;;;;21.75;17.75;;;;;21.00;40.69;102820.94;5060921;27;45411;-73
2022/01/22 07:40:30;;;;;;;;;29.50;26.75;;;;;20.95;42.70;102825.38;5063741;28;45304;-72
2022/01/22 07:42:56;;;;;;;;;22.75;19.50;;;;;20.92;42.06;102810.31;5047111;28;47486;-72
2022/01/22 07:45:21;;;;;;;;;18.50;17.75;;;;;20.88;42.04;102814.75;5082502;28;45370;-72
2022/01/22 07:47:46;;;;;;;;;20.00;16.50;;;;;20.84;41.50;102820.94;5048386;28;45354;-72
2022/01/22 07:50:12;;;;;;;;;17.00;15.25;;;;;20.81;41.07;102818.28;5065371;28;45561;-72
2022/01/22 07:52:37;;;;;;;;;13.25;12.50;;;;;20.77;40.58;102823.59;5046737;28;52446;-72
2022/01/22 07:55:03;;;;;;;;;18.00;14.00;;;;;20.72;41.01;102820.94;5082222;28;45387;-72
2022/01/22 07:57:29;;;;;;;;;16.75;15.25;;;;;20.70;40.42;102822.72;5065005;28;45308;-72
2022/01/22 07:59:54;;;;;;;;;16.50;14.50;;;;;20.66;40.59;102826.22;5062116;28;45323;-72
2022/01/22 08:02:20;;;;;;;;;17.75;13.25;;;;;20.62;40.09;102824.47;5058298;28;47847;-72
2022/01/22 08:04:45;;;;;;;;;14.50;12.00;;;;;20.59;39.86;102827.16;5065073;28;45270;-72
2022/01/22 08:07:11;;;;;;;;;13.25;13.00;;;;;20.57;39.71;102835.06;5082013;28;45417;-73
2022/01/22 08:09:36;;;;;;;;;16.75;14.50;;;;;20.55;39.85;102836.84;5081912;28;45256;-72
2022/01/22 08:12:02;;;;;;;;;14.75;14.00;;;;;20.53;40.08;102841.28;5064518;28;53578;-73
2022/01/22 08:14:27;;;;;;;;;16.25;14.50;;;;;20.54;40.02;102836.84;5044602;28;46170;-72
2022/01/22 08:16:52;;;;;;;;;15.50;13.00;;;;;20.52;39.80;102841.28;5042833;28;45239;-72
2022/01/22 08:19:18;;;;;;;;;16.50;14.00;;;;;20.52;39.58;102838.63;5047639;28;53096;-72
2022/01/22 08:21:44;;;;;;;;;14.25;13.50;;;;;20.48;39.72;102836.84;5050893;28;46585;-72
2022/01/22 08:24:11;;;;;;;;;17.50;15.25;;;;;20.48;39.52;102839.47;5064753;28;45453;-72
2022/01/22 08:26:41;;;;;;;;;19.75;15.50;;;;;20.47;39.27;102841.25;5062233;28;45386;-73
2022/01/22 08:29:06;;;;;;;;;19.75;14.75;;;;;20.47;39.15;102848.31;5045580;28;45614;-73
2022/01/22 08:36:43;;;;;;;;;16.00;15.50;;;;;20.44;39.45;102841.25;5067742;28;45424;-73
2022/01/22 08:39:08;;;;;;;;;13.75;13.25;;;;;20.46;39.03;102846.56;5081735;28;45595;-73
2022/01/22 08:41:33;;;;;;;;;15.50;13.50;;;;;20.44;39.27;102853.63;5064119;27;58323;-73
2022/01/22 08:44:00;;;;;;;;;16.25;15.00;;;;;20.44;39.08;102854.53;5061073;28;45270;-73
2022/01/22 08:46:26;;;;;;;;;17.25;17.00;;;;;20.46;39.01;102857.16;5058082;28;45342;-73
2022/01/22 08:48:51;;;;;;;;;14.25;14.25;;;;;20.44;39.03;102857.16;5034766;28;45645;-73
2022/01/22 08:51:17;;;;;;;;;20.75;16.25;;;;;20.44;39.02;102865.13;5079364;27;45309;-73
2022/01/22 08:53:42;;;;;;;;;13.00;13.00;;;;;20.42;38.51;102868.63;5081316;28;45352;-73
2022/01/22 08:56:09;;;;;;;;;16.75;16.75;;;;;20.39;38.84;102866.84;5061100;28;45256;-73
2022/01/22 08:58:34;;;;;;;;;15.25;14.25;;;;;20.39;38.59;102865.97;5060937;28;45444;-73
2022/01/22 09:01:00;;;;;;;;;15.50;15.00;;;;;20.37;38.99;102875.69;5061318;28;47367;-73
2022/01/22 09:03:26;;;;;;;;;14.75;12.75;;;;;20.36;38.84;102873.91;5082569;27;45271;-73
2022/01/22 09:05:52;;;;;;;;;17.25;15.00;;;;;20.35;39.01;102877.44;5044829;28;45258;-73
2022/01/22 09:08:17;;;;;;;;;18.75;13.50;;;;;20.34;38.56;102884.53;5055022;28;45247;-73
2022/01/22 09:10:43;;;;;;;;;16.75;15.50;;;;;20.33;38.87;102888.94;5063744;28;47894;-73
2022/01/22 09:13:09;;;;;;;;;18.25;14.75;;;;;20.34;39.05;102881.88;5063822;28;45398;-73
2022/01/22 09:15:35;;;;;;;;;17.25;16.75;;;;;20.32;38.96;102884.50;5080906;28;45500;-73
2022/01/22 09:18:03;;;;;;;;;16.75;16.00;;;;;20.32;38.52;102881.84;5063813;28;45364;-73
2022/01/22 09:21:02;;;;;;;;;16.75;13.00;;;;;20.31;38.66;102890.69;5080767;28;46175;-73
2022/01/22 09:23:18;;;;;;;;;17.00;13.50;;;;;20.30;39.08;102883.63;5080637;27;45310;-73
2022/01/22 09:25:46;;;;;;;;;15.00;12.75;;;;;20.31;39.00;102882.72;5043787;28;45293;-73
2022/01/22 09:28:12;;;;;;;;;13.50;13.00;;;;;20.33;38.76;102886.28;5074466;28;45575;-73
2022/01/22 09:30:39;;;;;;;;;15.75;13.75;;;;;20.37;38.98;102888.94;5064401;28;47277;-73
2022/01/22 09:33:04;;;;;;;;;15.25;14.75;;;;;20.38;38.76;102893.38;5057790;28;45341;-73
2022/01/22 09:35:30;;;;;;;;;18.75;15.25;;;;;20.40;38.85;102896.91;5043809;28;45233;-74
2022/01/22 09:37:56;;;;;;;;;14.50;12.50;;;;;20.38;38.81;102898.66;5041073;28;45433;-73
2022/01/22 09:40:22;;;;;;;;;17.50;16.00;;;;;20.41;38.59;102896.00;5043743;28;47379;-73
2022/01/22 09:42:47;;;;;;;;;13.75;12.75;;;;;20.40;38.80;102903.09;5040625;28;45931;-72
2022/01/22 09:45:15;;;;;;;;;15.00;14.00;;;;;20.39;38.46;102906.63;5063765;28;45284;-73
2022/01/22 09:47:44;;;;;;;;;15.50;12.50;;;;;20.41;38.42;102902.19;5063737;27;45516;-72
2022/01/22 09:50:09;;;;;;;;;13.50;13.50;;;;;20.41;38.28;102899.53;5063565;27;46949;-72
2022/01/22 09:52:35;;;;;;;;;19.00;14.25;;;;;20.41;38.47;102909.28;5063367;28;45285;-72
2022/01/22 09:55:00;;;;;;;;;14.50;13.00;;;;;20.41;38.19;102906.63;5063607;28;45476;-72
2022/01/22 09:57:26;;;;;;;;;15.50;13.75;;;;;20.41;38.38;102903.97;5063807;27;45475;-72
2022/01/22 09:59:52;;;;;;;;;14.50;12.00;;;;;20.39;38.25;102903.97;5055959;28;47128;-72
2022/01/22 10:02:19;;;;;;;;;14.50;13.00;;;;;20.40;38.41;102912.81;5053973;28;45591;-73
2022/01/22 10:04:48;;;;;;;;;15.50;12.75;;;;;20.39;38.27;102905.75;5063950;28;45417;-72
2022/01/22 10:07:21;;;;;;;;;17.75;15.50;;;;;20.39;38.30;102909.28;5058062;28;45359;-73
2022/01/22 10:10:02;;;;;;;;;17.50;14.00;;;;;20.39;38.10;102916.34;5080997;27;45366;-73
2022/01/22 10:12:41;;;;;;;;;15.25;13.50;;;;;20.37;37.77;102919.00;5063954;28;45228;-73
2022/01/22 10:15:14;;;;;;;;;15.50;14.75;;;;;20.33;38.39;102918.13;5045205;28;45336;-73
2022/01/22 10:17:50;;;;;;;;;15.25;14.00;;;;;20.33;38.13;102914.59;5081202;27;45422;-73
2022/01/22 10:20:25;;;;;;;;;15.25;14.00;;;;;20.33;38.17;102922.53;5046514;28;47164;-74
2022/01/22 10:22:56;;;;;;;;;13.25;12.25;;;;;20.32;38.09;102921.63;5076569;28;45350;-73
2022/01/22 10:25:24;;;;;;;;;13.75;13.25;;;;;20.33;38.29;102925.19;5077962;28;45302;-73
2022/01/22 10:28:04;;;;;;;;;13.50;13.50;;;;;20.34;38.32;102919.00;5059483;28;45407;-73
2022/01/22 10:30:41;;;;;;;;;15.75;13.75;;;;;20.33;38.15;102918.13;5059688;28;45741;-73
2022/01/22 10:33:27;;;;;;;;;12.50;11.75;;;;;20.33;38.50;102926.06;5062644;28;45700;-73
2022/01/22 10:35:52;;;;;;;;;15.50;10.75;;;;;20.33;38.59;102927.84;5045268;28;45185;-74
2022/01/22 10:38:18;;;;;;;;;15.50;12.50;;;;;20.34;37.68;102926.97;5076635;28;59983;-76
2022/01/22 10:40:45;;;;;;;;;10.00;8.75;;;;;20.37;39.86;102921.66;5043646;28;46778;-76
2022/01/22 10:43:28;;;;;;;;;11.00;8.25;;;;;20.46;41.15;102926.13;5046320;28;45587;-72
2022/01/22 10:47:03;;;;;;;;;10.50;9.50;;;;;20.60;41.80;102924.41;5066767;27;45378;-77
2022/01/22 10:48:55;;;;;;;;;9.00;9.00;;;;;20.74;42.57;102920.00;5075844;27;45592;-82
2022/01/22 10:51:20;;;;;;;;;9.50;9.50;;;;;20.83;42.89;102921.78;5075947;28;47859;-78
2022/01/22 10:53:58;;;;;;;;;10.00;8.50;;;;;20.91;42.29;102911.19;5054054;28;45351;-75
2022/01/22 10:56:23;;;;;;;;;8.00;6.00;;;;;20.99;42.20;102920.94;5044820;28;45185;-77
2022/01/22 10:58:53;;;;;;;;;10.00;10.00;;;;;21.05;42.61;102917.41;5056273;28;45443;-77
2022/01/22 11:01:19;;;;;;;;;8.25;7.50;;;;;21.09;42.82;102911.19;5080666;27;45369;-75
2022/01/22 11:03:44;;;;;;;;;8.75;8.00;;;;;21.13;42.78;102907.66;5052251;28;45246;-76
2022/01/22 11:06:24;;;;;;;;;6.25;6.25;;;;;21.18;42.93;102905.88;5079296;28;45323;-76
2022/01/22 11:08:49;;;;;;;;;10.75;9.25;;;;;21.21;42.83;102900.59;5061414;28;45417;-76
2022/01/22 11:11:15;;;;;;;;;9.25;7.75;;;;;21.24;42.88;102903.22;5080664;27;51433;-74
2022/01/22 11:13:40;;;;;;;;;9.50;8.25;;;;;21.28;43.15;102901.47;5080431;27;45325;-75
2022/01/22 11:16:06;;;;;;;;;13.75;10.50;;;;;21.30;42.88;102905.94;5058240;28;45290;-74
2022/01/22 11:18:31;;;;;;;;;8.25;7.50;;;;;21.32;42.53;102904.16;5045154;28;48198;-75
2022/01/22 11:20:56;;;;;;;;;11.00;9.75;;;;;21.34;42.89;102897.06;5061382;28;68206;-75
2022/01/22 11:23:22;;;;;;;;;10.50;9.00;;;;;21.37;42.38;102905.03;5078335;28;61133;-75
2022/01/22 11:25:47;;;;;;;;;11.00;8.50;;;;;21.39;42.81;102897.06;5042000;28;45453;-75
2022/01/22 11:28:12;;;;;;;;;14.75;11.50;;;;;21.41;42.83;102901.47;5055437;28;61038;-74
2022/01/22 11:30:46;;;;;;;;;10.00;9.25;;;;;21.47;43.20;102897.06;5078739;28;47813;-76
2022/01/22 11:33:32;;;;;;;;;8.25;7.75;;;;;21.45;43.03;102894.38;5062290;28;45398;-77
2022/01/22 11:36:12;;;;;;;;;9.50;8.00;;;;;21.51;43.36;102898.81;5061718;28;45336;-75
2022/01/22 11:38:39;;;;;;;;;17.00;12.00;;;;;21.53;43.94;102891.72;5079249;28;45205;-71
2022/01/22 11:41:14;;;;;;;;;17.25;10.50;;;;;21.55;43.85;102892.63;5061770;28;46298;-72
2022/01/22 11:44:08;;;;;;;;;15.75;11.25;;;;;21.57;44.18;102894.38;5041741;28;45465;-72
2022/01/22 11:46:39;;;;;;;;;9.75;9.00;;;;;21.58;44.06;102889.94;5077382;28;45251;-72
2022/01/22 11:49:14;;;;;;;;;17.25;11.50;;;;;21.60;43.99;102890.81;5075550;27;45473;-73
2022/01/22 11:51:45;;;;;;;;;14.25;9.75;;;;;21.59;43.99;102883.75;5065956;28;45417;-72
2022/01/22 11:54:10;;;;;;;;;11.50;10.75;;;;;21.58;44.29;102884.63;5045244;28;45360;-72
2022/01/22 11:56:47;;;;;;;;;12.75;9.00;;;;;21.60;43.88;102881.06;5058694;28;45521;-73
2022/01/22 11:59:16;;;;;;;;;10.25;9.00;;;;;21.60;44.13;102889.03;5061138;28;45534;-72
2022/01/22 12:01:52;;;;;;;;;10.75;10.75;;;;;21.60;43.70;102889.03;5072035;27;47840;-73
2022/01/22 12:04:22;;;;;;;;;8.25;8.25;;;;;21.61;43.69;102884.59;5076642;28;45423;-73
2022/01/22 12:07:03;;;;;;;;;10.75;10.00;;;;;21.61;43.66;102874.84;5058328;28;45388;-72
2022/01/22 12:10:05;;;;;;;;;10.00;10.00;;;;;21.62;43.89;102881.94;5066748;28;45479;-72
2022/01/22 12:15:20;;;;;;;;;12.00;9.50;;;;;21.61;43.55;102863.34;5064632;28;45485;-72
2022/01/22 12:22:57;;;;;;;;;7.50;6.75;;;;;21.61;43.20;102860.69;5079536;28;46263;-72
2022/01/22 12:25:22;;;;;;;;;9.50;9.50;;;;;21.62;43.25;102870.44;5040783;28;48900;-72
2022/01/22 12:27:49;;;;;;;;;11.00;9.50;;;;;21.62;43.43;102860.69;5072912;28;45340;-73
2022/01/22 12:30:16;;;;;;;;;6.00;6.00;;;;;21.64;43.08;102863.38;5047956;28;45559;-72
2022/01/22 12:32:51;;;;;;;;;9.25;7.25;;;;;21.63;43.05;102851.84;5081673;28;45596;-73
2022/01/22 12:35:18;;;;;;;;;11.25;9.50;;;;;21.64;43.49;102852.72;5081719;28;45259;-73
2022/01/22 12:37:48;;;;;;;;;10.50;9.00;;;;;21.64;43.62;102855.38;5081880;28;45284;-73
2022/01/22 12:40:23;;;;;;;;;9.25;8.00;;;;;21.64;43.31;102855.38;5082239;27;45365;-72
2022/01/22 12:42:55;;;;;;;;;9.75;8.00;;;;;21.63;43.21;102846.53;5082551;27;46546;-72
2022/01/22 12:45:22;;;;;;;;;12.50;10.50;;;;;21.64;42.93;102847.41;5081473;28;45440;-73
2022/01/22 12:47:48;;;;;;;;;15.50;11.50;;;;;21.63;42.81;102841.22;5064722;27;45415;-73